createdAt,value
2022-09-01T00:01:41.662Z,2.03
2022-09-01T00:06:46.999Z,2.50
2022-09-01T00:11:59.027Z,2.45
2022-09-01T00:17:06.780Z,2.20
2022-09-01T00:22:11.161Z,2.47
2022-09-01T00:27:17.943Z,2.20
2022-09-01T00:32:23.487Z,2.00
2022-09-01T00:37:28.334Z,2.60
2022-09-01T00:42:34.268Z,2.83
2022-09-01T00:47:39.072Z,2.05
2022-09-01T00:52:48.898Z,2.42
2022-09-01T01:03:01.030Z,2.40
2022-09-01T01:08:08.774Z,2.53
2022-09-01T01:13:17.929Z,2.70
2022-09-01T01:18:23.006Z,2.05
2022-09-01T01:23:37.479Z,2.00
2022-09-01T01:28:44.730Z,2.40
2022-09-01T01:33:51.712Z,2.75
2022-09-01T01:38:58.141Z,2.72
2022-09-01T01:44:06.165Z,3.17
2022-09-01T01:49:12.001Z,2.38
2022-09-01T01:54:20.353Z,2.40
2022-09-01T01:59:30.092Z,2.28
2022-09-01T02:04:34.949Z,2.05
2022-09-01T02:09:48.433Z,2.42
2022-09-01T02:14:55.722Z,2.35
2022-09-01T02:20:00.442Z,2.20
2022-09-01T02:25:06.226Z,1.90
2022-09-01T02:30:13.567Z,2.28
2022-09-01T02:35:19.390Z,1.95
2022-09-01T02:40:24.254Z,1.98
2022-09-01T02:45:30.459Z,2.00
2022-09-01T02:50:35.075Z,1.88
2022-09-01T02:55:39.894Z,2.20
2022-09-01T03:00:47.442Z,2.08
2022-09-01T03:05:55.861Z,1.70
2022-09-01T03:11:03.741Z,2.60
2022-09-01T03:16:11.718Z,2.17
2022-09-01T03:21:17.379Z,2.45
2022-09-01T03:26:23.229Z,2.95
2022-09-01T03:31:31.183Z,2.47
2022-09-01T03:36:39.963Z,2.20
2022-09-01T03:41:45.203Z,1.90
2022-09-01T03:46:52.122Z,2.75
2022-09-01T03:51:59.090Z,1.90
2022-09-01T03:57:06.457Z,1.67
2022-09-01T04:02:13.453Z,2.20
2022-09-01T04:07:19.352Z,2.58
2022-09-01T04:12:26.335Z,2.42
2022-09-01T04:17:49.792Z,2.30
2022-09-01T04:22:54.125Z,3.03
2022-09-01T04:27:59.828Z,3.30
2022-09-01T04:33:05.932Z,2.75
2022-09-01T04:38:10.939Z,2.22
2022-09-01T04:43:15.184Z,2.90
2022-09-01T04:48:23.949Z,2.30
2022-09-01T04:53:29.820Z,2.20
2022-09-01T04:58:35.448Z,2.40
2022-09-01T05:03:41.582Z,2.47
2022-09-01T05:08:54.401Z,2.67
2022-09-01T05:14:19.276Z,2.67
2022-09-01T05:19:29.162Z,2.53
2022-09-01T05:24:41.766Z,2.22
2022-09-01T05:29:47.718Z,2.85
2022-09-01T05:34:55.802Z,2.80
2022-09-01T05:40:01.281Z,2.83
2022-09-01T05:45:11.079Z,2.97
2022-09-01T05:50:19.488Z,3.00
2022-09-01T05:55:28.170Z,3.20
2022-09-01T06:00:35.038Z,2.33
2022-09-01T06:05:41.515Z,2.85
2022-09-01T06:10:50.911Z,2.50
2022-09-01T06:15:58.540Z,2.28
2022-09-01T06:21:09.008Z,2.70
2022-09-01T06:26:19.348Z,2.63
2022-09-01T06:31:25.552Z,2.33
2022-09-01T06:36:35.070Z,2.72
2022-09-01T06:41:40.596Z,2.55
2022-09-01T06:46:48.504Z,2.22
2022-09-01T06:51:54.656Z,2.40
2022-09-01T06:58:03.265Z,2.53
2022-09-01T07:02:29.512Z,1.75
2022-09-01T07:08:06.141Z,3.80
2022-09-01T07:13:31.041Z,1.92
2022-09-01T07:23:46.663Z,1.90
2022-09-01T07:29:01.935Z,2.00
2022-09-01T07:45:47.140Z,2.47
2022-09-01T07:56:26.412Z,1.75
2022-09-01T08:01:31.410Z,1.20
2022-09-01T08:06:39.204Z,1.13
2022-09-01T08:12:03.171Z,1.30
2022-09-01T08:22:43.124Z,1.05
2022-09-01T08:28:01.204Z,1.10
2022-09-01T08:33:10.484Z,1.70
2022-09-01T08:38:19.539Z,0.90
2022-09-01T08:43:36.064Z,1.20
2022-09-01T08:54:29.949Z,1.10
2022-09-01T08:59:39.699Z,1.20
2022-09-01T09:05:15.628Z,1.20
2022-09-01T09:10:24.612Z,1.50
2022-09-01T09:15:40.711Z,1.10
2022-09-01T09:20:46.527Z,1.40
2022-09-01T09:25:52.777Z,0.73
2022-09-01T09:31:33.906Z,1.25
2022-09-01T09:36:42.578Z,1.20
2022-09-01T09:42:09.765Z,1.20
2022-09-01T09:47:45.034Z,1.48
2022-09-01T09:52:53.224Z,2.25
2022-09-01T09:58:01.496Z,1.10
2022-09-01T10:03:12.260Z,2.35
2022-09-01T10:08:45.646Z,1.70
2022-09-01T10:27:43.032Z,0.63
2022-09-01T10:32:55.719Z,0.95
2022-09-01T10:38:08.256Z,0.70
2022-09-01T10:43:38.010Z,0.95
2022-09-01T10:48:48.796Z,0.70
2022-09-01T10:54:03.249Z,0.90
2022-09-01T11:05:19.857Z,1.25
2022-09-01T11:10:40.000Z,1.48
2022-09-01T11:15:47.559Z,0.90
2022-09-01T11:20:52.714Z,0.70
2022-09-01T11:31:41.575Z,1.48
2022-09-01T11:37:01.912Z,1.23
2022-09-01T11:42:13.477Z,1.10
2022-09-01T11:47:27.114Z,1.75
2022-09-01T11:52:34.249Z,0.98
2022-09-01T11:57:42.406Z,1.10
2022-09-01T12:02:52.205Z,2.10
2022-09-01T12:08:02.653Z,0.80
2022-09-01T12:13:10.102Z,0.75
2022-09-01T12:18:22.408Z,0.70
2022-09-01T12:23:31.977Z,2.72
2022-09-01T12:33:45.490Z,0.80
2022-09-01T12:38:50.630Z,1.10
2022-09-01T12:43:56.356Z,0.90
2022-09-01T12:49:20.251Z,0.90
2022-09-01T12:54:27.667Z,0.70
2022-09-01T12:59:37.574Z,0.68
2022-09-01T13:04:43.929Z,0.77
2022-09-01T13:09:48.699Z,1.20
2022-09-01T13:14:53.459Z,0.70
2022-09-01T13:19:59.361Z,1.30
2022-09-01T13:25:03.937Z,1.02
2022-09-01T13:30:10.001Z,1.15
2022-09-01T13:35:18.199Z,0.65
2022-09-01T13:40:24.356Z,1.33
2022-09-01T13:45:29.198Z,1.10
2022-09-01T13:56:00.871Z,0.57
2022-09-01T14:01:05.413Z,3.15
2022-09-01T14:06:12.511Z,1.08
2022-09-01T14:11:20.300Z,1.50
2022-09-01T14:16:24.981Z,1.38
2022-09-01T14:21:31.822Z,1.65
2022-09-01T14:26:36.546Z,0.60
2022-09-01T14:31:40.707Z,1.38
2022-09-01T14:36:48.027Z,0.63
2022-09-01T14:41:53.609Z,0.52
2022-09-01T14:46:59.571Z,0.77
2022-09-01T14:52:10.753Z,3.47
2022-09-01T14:57:37.860Z,1.33
2022-09-01T15:02:43.922Z,1.50
2022-09-01T15:07:51.048Z,0.70
2022-09-01T15:12:58.350Z,1.30
2022-09-01T15:18:03.855Z,0.63
2022-09-01T15:23:10.522Z,1.80
2022-09-01T15:28:15.606Z,1.40
2022-09-01T15:33:20.638Z,1.10
2022-09-01T15:38:30.529Z,1.15
2022-09-01T15:43:35.962Z,0.60
2022-09-01T15:48:40.334Z,1.50
2022-09-01T15:53:46.256Z,1.25
2022-09-01T15:59:07.482Z,2.83
2022-09-01T16:04:19.140Z,2.22
2022-09-01T16:09:27.857Z,2.55
2022-09-01T16:14:32.461Z,1.48
2022-09-01T16:19:49.676Z,1.92
2022-09-01T16:24:58.367Z,1.15
2022-09-01T16:30:07.120Z,0.70
2022-09-01T16:35:11.761Z,1.00
2022-09-01T16:40:31.513Z,0.80
2022-09-01T16:45:48.079Z,1.05
2022-09-01T16:50:59.643Z,1.73
2022-09-01T16:56:09.453Z,1.02
2022-09-01T17:06:33.972Z,1.17
2022-09-01T17:11:49.238Z,1.53
2022-09-01T17:16:56.875Z,1.90
2022-09-01T17:22:06.819Z,1.73
2022-09-01T17:27:20.154Z,1.25
2022-09-01T17:32:54.243Z,1.30
2022-09-01T17:38:06.187Z,1.50
2022-09-01T17:43:26.627Z,1.30
2022-09-01T17:48:41.169Z,2.17
2022-09-01T17:53:58.344Z,1.63
2022-09-01T17:59:12.228Z,1.30
2022-09-01T18:04:41.098Z,1.70
2022-09-01T18:09:50.995Z,1.85
2022-09-01T18:15:09.165Z,1.90
2022-09-01T18:20:21.488Z,1.60
2022-09-01T18:25:30.387Z,1.65
2022-09-01T18:30:53.515Z,1.73
2022-09-01T18:36:09.421Z,1.92
2022-09-01T18:41:35.979Z,1.67
2022-09-01T18:46:49.886Z,1.98
2022-09-01T18:52:09.702Z,1.70
2022-09-01T18:57:21.341Z,1.50
2022-09-01T19:02:40.791Z,1.98
2022-09-01T19:07:55.826Z,2.20
2022-09-01T19:13:10.111Z,2.35
2022-09-01T19:18:26.276Z,2.58
2022-09-01T19:23:41.887Z,2.75
2022-09-01T19:28:50.813Z,2.63
2022-09-01T19:34:00.658Z,2.03
2022-09-01T19:39:07.377Z,1.85
2022-09-01T19:44:21.619Z,2.40
2022-09-01T19:49:39.872Z,2.20
2022-09-01T19:54:52.486Z,1.95
2022-09-01T20:00:06.151Z,2.00
2022-09-01T20:05:24.398Z,2.03
2022-09-01T20:10:51.612Z,1.85
2022-09-01T20:16:09.962Z,1.80
2022-09-01T20:21:21.294Z,1.70
2022-09-01T20:26:33.110Z,1.98
2022-09-01T20:31:42.181Z,1.63
2022-09-01T20:36:52.561Z,1.90
2022-09-01T20:42:01.637Z,2.13
2022-09-01T20:47:07.852Z,1.80
2022-09-01T20:52:18.393Z,1.67
2022-09-01T20:57:34.675Z,2.05
2022-09-01T21:02:53.872Z,2.55
2022-09-01T21:08:18.934Z,2.40
2022-09-01T21:13:37.377Z,2.50
2022-09-01T21:18:52.160Z,2.47
2022-09-01T21:23:58.492Z,2.40
2022-09-01T21:29:16.416Z,2.85
2022-09-01T21:34:20.869Z,2.20
2022-09-01T21:39:27.231Z,2.38
2022-09-01T21:44:34.257Z,2.50
2022-09-01T21:49:38.738Z,1.83
2022-09-01T21:54:44.848Z,2.25
2022-09-01T21:59:49.529Z,2.00
2022-09-01T22:04:53.873Z,1.88
2022-09-01T22:10:00.063Z,2.17
2022-09-01T22:15:06.173Z,1.95
2022-09-01T22:20:13.222Z,1.58
2022-09-01T22:25:24.160Z,1.90
2022-09-01T22:30:29.445Z,2.00
2022-09-01T22:35:34.478Z,2.15
2022-09-01T22:40:48.263Z,2.00
2022-09-01T22:45:53.922Z,2.20
2022-09-01T22:50:58.191Z,2.55
2022-09-01T22:56:11.624Z,2.45
2022-09-01T23:01:21.537Z,2.25
2022-09-01T23:06:28.024Z,2.20
2022-09-01T23:11:34.229Z,2.38
2022-09-01T23:16:39.155Z,2.33
2022-09-01T23:21:43.782Z,1.88
2022-09-01T23:26:50.755Z,2.17
2022-09-01T23:31:55.955Z,1.80
2022-09-01T23:37:01.005Z,2.08
2022-09-01T23:42:07.401Z,1.67
2022-09-01T23:47:12.126Z,2.22
2022-09-01T23:52:16.903Z,1.90
2022-09-01T23:57:23.033Z,1.77
